Time;durP1;ratioP1;P1;durP2;ratioP2;P2;SDS_P1;SDS_P2;PMS_P1;PMS_P2;Temp;Humidity;BMP_temperature;BMP_pressure;BME280_temperature;BME280_humidity;BME280_pressure;Samples;Min_cycle;Max_cycle;Signal;HPM_P1;HPM_P2
2023/05/04 00:01:03;;;;;;;6.23;5.73;;;12.60;93.40;;;;;;10370278;28;20222;-83
2023/05/04 00:06:05;;;;;;;7.03;6.43;;;12.50;93.60;;;;;;10375071;28;20199;-82
2023/05/04 00:11:07;;;;;;;7.60;7.00;;;12.50;93.90;;;;;;10374000;28;20585;-81
2023/05/04 00:16:11;;;;;;;6.53;6.03;;;12.50;93.60;;;;;;10356039;28;20223;-81
2023/05/04 00:21:13;;;;;;;6.17;5.73;;;12.40;93.70;;;;;;10355708;28;20226;-81
2023/05/04 00:26:15;;;;;;;11.10;6.30;;;12.40;93.70;;;;;;10373563;28;20605;-81
2023/05/04 00:31:20;;;;;;;6.97;6.20;;;12.40;93.70;;;;;;10373734;28;20215;-83
2023/05/04 00:36:22;;;;;;;7.60;6.90;;;12.30;93.60;;;;;;10371990;28;20222;-81
2023/05/04 00:41:24;;;;;;;8.57;7.90;;;12.30;93.60;;;;;;10373876;28;20215;-81
2023/05/04 00:46:28;;;;;;;7.47;6.77;;;12.20;93.70;;;;;;10373325;28;20231;-82
2023/05/04 00:51:30;;;;;;;7.83;7.13;;;12.20;93.70;;;;;;10356137;28;20595;-81
2023/05/04 00:56:37;;;;;;;7.20;6.60;;;12.20;93.80;;;;;;10379056;28;20249;-84
2023/05/04 01:01:41;;;;;;;6.53;6.13;;;12.20;93.90;;;;;;10377158;28;20594;-81
2023/05/04 01:06:47;;;;;;;7.00;6.53;;;12.20;93.80;;;;;;10346567;28;20199;-84
2023/05/04 01:11:57;;;;;;;7.33;6.70;;;12.20;94.20;;;;;;10364221;28;20311;-85
2023/05/04 01:17:03;;;;;;;7.70;7.10;;;12.20;94.30;;;;;;10381385;28;20238;-85
2023/05/04 01:22:07;;;;;;;8.10;7.50;;;12.20;94.20;;;;;;10339058;28;20239;-85
2023/05/04 01:27:15;;;;;;;7.50;6.97;;;12.20;94.40;;;;;;10354531;28;20253;-84
2023/05/04 01:32:19;;;;;;;7.60;7.00;;;12.20;94.50;;;;;;10349154;28;20215;-85
2023/05/04 01:37:22;;;;;;;7.47;6.93;;;12.10;94.80;;;;;;10366239;28;20239;-85
2023/05/04 01:42:26;;;;;;;8.40;7.70;;;12.10;95.00;;;;;;10368418;28;20203;-85
2023/05/04 01:47:28;;;;;;;8.47;7.77;;;12.10;95.20;;;;;;10390392;28;20227;-85
2023/05/04 01:52:32;;;;;;;9.30;8.60;;;12.00;95.30;;;;;;10370666;28;20769;-84
2023/05/04 01:57:34;;;;;;;8.80;8.00;;;12.00;96.30;;;;;;10351253;28;20306;-82
2023/05/04 02:02:36;;;;;;;9.70;8.90;;;12.10;96.40;;;;;;10366517;28;20203;-83
2023/05/04 02:07:39;;;;;;;9.50;8.60;;;12.10;96.00;;;;;;10359539;28;20250;-83
2023/05/04 02:12:42;;;;;;;10.07;9.23;;;12.10;95.70;;;;;;10383397;28;20246;-84
2023/05/04 02:17:45;;;;;;;10.10;9.27;;;12.00;96.40;;;;;;10365455;28;20305;-83
2023/05/04 02:22:48;;;;;;;10.70;9.80;;;12.00;96.80;;;;;;10384002;28;20246;-84
2023/05/04 02:27:50;;;;;;;11.17;10.17;;;12.00;97.30;;;;;;10383973;28;20226;-83
2023/05/04 02:32:52;;;;;;;11.73;10.03;;;12.00;97.30;;;;;;10384970;28;20707;-83
2023/05/04 02:37:56;;;;;;;12.23;11.23;;;12.00;96.90;;;;;;10362404;28;20210;-83
2023/05/04 02:42:58;;;;;;;12.50;11.10;;;12.00;97.30;;;;;;10370035;28;20562;-83
2023/05/04 02:48:00;;;;;;;12.47;11.47;;;12.00;97.50;;;;;;10388173;28;20251;-84
2023/05/04 02:53:03;;;;;;;11.80;10.90;;;12.00;97.40;;;;;;10398086;28;20215;-83
2023/05/04 02:58:06;;;;;;;11.83;10.90;;;11.90;96.90;;;;;;10395130;28;20300;-83
2023/05/04 03:03:08;;;;;;;12.00;11.00;;;11.90;97.40;;;;;;10378864;28;20215;-83
2023/05/04 03:08:11;;;;;;;11.57;10.67;;;11.80;97.20;;;;;;10359941;28;20774;-82
2023/05/04 03:13:13;;;;;;;12.97;11.80;;;11.80;97.20;;;;;;10361256;28;20215;-83
2023/05/04 03:18:16;;;;;;;11.90;10.90;;;11.70;97.40;;;;;;10337452;28;20259;-83
2023/05/04 03:23:20;;;;;;;12.80;11.70;;;11.60;97.60;;;;;;10365967;28;20200;-83
2023/05/04 03:28:23;;;;;;;12.43;11.33;;;11.50;97.50;;;;;;10359937;28;20219;-83
2023/05/04 03:33:25;;;;;;;13.27;12.07;;;11.40;98.10;;;;;;10343593;28;20219;-82
2023/05/04 03:38:31;;;;;;;13.73;12.53;;;11.40;97.80;;;;;;10360624;28;20225;-83
2023/05/04 03:43:34;;;;;;;13.73;12.43;;;11.30;97.90;;;;;;10345734;28;20195;-83
2023/05/04 03:48:36;;;;;;;13.83;12.70;;;11.30;98.00;;;;;;10361631;28;20227;-83
2023/05/04 03:53:41;;;;;;;14.30;12.87;;;11.20;98.00;;;;;;10346851;28;20695;-83
2023/05/04 03:58:44;;;;;;;13.67;12.37;;;11.20;98.10;;;;;;10362213;28;20211;-82
2023/05/04 04:03:48;;;;;;;13.83;12.67;;;11.00;98.30;;;;;;10362845;28;20597;-82
2023/05/04 04:08:55;;;;;;;14.43;12.93;;;11.00;98.50;;;;;;10346155;28;20223;-82
2023/05/04 04:13:57;;;;;;;14.00;12.80;;;10.90;98.50;;;;;;10375067;28;20242;-82
2023/05/04 04:19:00;;;;;;;14.37;13.10;;;10.90;98.90;;;;;;10344308;28;20658;-82
2023/05/04 04:24:04;;;;;;;13.50;12.33;;;11.00;98.90;;;;;;10383891;28;20187;-82
2023/05/04 04:29:06;;;;;;;14.50;13.00;;;11.00;98.90;;;;;;10349557;28;20576;-82
2023/05/04 04:34:08;;;;;;;14.40;13.00;;;11.00;98.90;;;;;;10378976;28;20215;-81
2023/05/04 04:39:12;;;;;;;13.70;12.50;;;11.10;98.70;;;;;;10374013;28;20298;-82
2023/05/04 04:44:14;;;;;;;13.80;12.60;;;11.10;98.60;;;;;;10357359;28;20290;-82
2023/05/04 04:49:16;;;;;;;13.43;12.23;;;11.10;99.10;;;;;;10374369;28;20227;-82
2023/05/04 04:54:20;;;;;;;14.43;13.00;;;11.10;99.60;;;;;;10355943;28;20221;-83
2023/05/04 04:59:23;;;;;;;16.30;14.80;;;11.20;99.20;;;;;;10373875;28;20674;-83
2023/05/04 05:04:25;;;;;;;14.27;13.07;;;11.30;99.00;;;;;;10377392;28;20198;-82
2023/05/04 05:09:29;;;;;;;15.13;13.90;;;11.30;99.30;;;;;;10357534;28;20215;-83
2023/05/04 05:14:31;;;;;;;15.27;13.87;;;11.40;99.50;;;;;;10358872;28;20223;-83
2023/05/04 05:19:35;;;;;;;18.40;14.10;;;11.50;99.50;;;;;;10378319;28;20253;-84
2023/05/04 05:24:39;;;;;;;15.63;14.33;;;11.50;99.50;;;;;;10360885;28;20227;-82
2023/05/04 05:29:43;;;;;;;15.33;13.93;;;11.60;99.80;;;;;;10388670;28;20225;-83
2023/05/04 05:34:45;;;;;;;22.00;14.63;;;11.70;99.90;;;;;;10387548;28;20222;-84
2023/05/04 05:39:48;;;;;;;14.77;13.27;;;11.90;99.90;;;;;;10352756;28;20287;-84
2023/05/04 05:44:51;;;;;;;15.60;14.20;;;11.90;99.70;;;;;;10376211;28;20191;-83
2023/05/04 05:49:53;;;;;;;15.53;14.00;;;12.00;99.50;;;;;;10371107;28;20223;-83
2023/05/04 05:54:56;;;;;;;16.07;14.57;;;12.20;99.90;;;;;;10364864;28;20215;-83
2023/05/04 06:00:01;;;;;;;15.47;14.07;;;12.20;99.40;;;;;;10365452;28;20287;-84
2023/05/04 06:05:14;;;;;;;16.60;13.97;;;12.30;99.60;;;;;;10363563;28;20191;-83
2023/05/04 06:10:17;;;;;;;14.70;13.20;;;12.40;99.40;;;;;;10371081;28;20233;-84
2023/05/04 06:15:20;;;;;;;17.90;14.77;;;12.40;99.60;;;;;;10362364;28;20701;-83
2023/05/04 06:20:22;;;;;;;16.17;14.77;;;12.50;99.70;;;;;;10354093;28;20212;-83
2023/05/04 06:25:26;;;;;;;17.13;15.50;;;12.50;99.70;;;;;;10351832;28;20268;-83
2023/05/04 06:30:28;;;;;;;16.80;14.93;;;12.60;99.80;;;;;;10370209;28;20223;-83
2023/05/04 06:35:30;;;;;;;16.43;14.73;;;12.70;99.70;;;;;;10350898;28;20283;-82
2023/05/04 06:40:33;;;;;;;16.77;15.03;;;12.80;99.90;;;;;;10377768;28;20230;-83
2023/05/04 06:45:35;;;;;;;16.00;14.57;;;12.90;99.90;;;;;;10366761;28;20187;-84
2023/05/04 06:50:39;;;;;;;15.47;14.07;;;13.00;99.90;;;;;;10351975;28;20258;-83
2023/05/04 06:55:43;;;;;;;16.50;15.10;;;13.20;99.90;;;;;;10379218;28;20293;-84
2023/05/04 07:00:45;;;;;;;16.83;15.23;;;13.30;99.90;;;;;;10367032;28;20226;-83
2023/05/04 07:05:49;;;;;;;17.07;15.37;;;13.40;99.60;;;;;;10383608;28;20187;-84
2023/05/04 07:10:53;;;;;;;16.50;14.87;;;13.50;99.80;;;;;;10365107;28;20222;-84
2023/05/04 07:15:55;;;;;;;15.27;13.63;;;13.70;98.80;;;;;;10364465;28;20285;-84
2023/05/04 07:20:57;;;;;;;13.90;12.70;;;13.90;98.40;;;;;;10358900;28;20222;-84
2023/05/04 07:26:01;;;;;;;15.10;13.70;;;14.10;99.20;;;;;;10377331;28;20544;-84
2023/05/04 07:31:03;;;;;;;15.30;13.83;;;14.60;99.20;;;;;;10343882;28;20707;-83
2023/05/04 07:36:05;;;;;;;14.70;13.30;;;15.10;98.60;;;;;;10379222;28;20310;-84
2023/05/04 07:41:09;;;;;;;11.33;10.30;;;15.70;97.40;;;;;;10361645;28;20242;-84
2023/05/04 07:46:11;;;;;;;11.40;10.40;;;16.10;97.20;;;;;;10361419;28;20202;-84
2023/05/04 07:51:14;;;;;;;10.93;10.03;;;16.60;93.40;;;;;;10362545;28;20226;-84
2023/05/04 07:56:17;;;;;;;10.90;10.00;;;16.90;95.00;;;;;;10347860;28;20227;-84
2023/05/04 08:01:19;;;;;;;11.03;10.10;;;17.30;95.40;;;;;;10362719;28;20305;-84
2023/05/04 08:06:22;;;;;;;9.47;8.67;;;17.80;93.00;;;;;;10384294;28;20199;-85
2023/05/04 08:11:26;;;;;;;9.20;8.33;;;18.20;92.60;;;;;;10357570;28;20710;-85
2023/05/04 08:16:28;;;;;;;10.17;9.27;;;18.70;92.40;;;;;;10380080;28;20211;-85
2023/05/04 08:21:30;;;;;;;8.83;8.13;;;19.10;90.20;;;;;;10353642;28;20215;-85
2023/05/04 08:26:36;;;;;;;8.40;7.80;;;19.50;88.10;;;;;;10370074;28;20258;-85
2023/05/04 08:31:39;;;;;;;7.30;6.70;;;19.90;87.10;;;;;;10368931;28;20219;-86
2023/05/04 08:36:41;;;;;;;6.40;6.00;;;20.20;82.50;;;;;;10355050;28;20237;-85
2023/05/04 08:41:44;;;;;;;6.90;6.50;;;20.50;79.70;;;;;;10374440;28;20219;-84
2023/05/04 08:46:51;;;;;;;7.47;6.97;;;20.70;79.90;;;;;;10368993;28;20225;-85
2023/05/04 08:51:53;;;;;;;6.50;6.07;;;20.90;81.20;;;;;;10355077;28;20215;-85
2023/05/04 08:56:57;;;;;;;6.30;5.90;;;21.20;76.60;;;;;;10385039;28;20211;-85
2023/05/04 09:02:01;;;;;;;7.63;6.93;;;21.10;77.10;;;;;;10357178;28;20195;-85
2023/05/04 09:07:03;;;;;;;7.23;6.63;;;21.00;73.50;;;;;;10392981;28;20183;-85
2023/05/04 09:12:07;;;;;;;6.60;6.00;;;21.00;75.60;;;;;;10368131;28;20197;-82
2023/05/04 09:17:15;;;;;;;6.40;5.90;;;21.00;74.20;;;;;;10376067;28;20219;-82
2023/05/04 09:22:18;;;;;;;6.20;5.80;;;21.20;77.90;;;;;;10356906;28;20191;-82
2023/05/04 09:27:21;;;;;;;6.80;6.33;;;21.40;76.70;;;;;;10384898;28;20211;-83
2023/05/04 09:32:24;;;;;;;6.67;6.07;;;21.60;72.90;;;;;;10455844;23;20227;-82
2023/05/04 09:37:26;;;;;;;5.97;5.50;;;21.70;72.10;;;;;;10433079;28;20222;-82
2023/05/04 09:42:30;;;;;;;5.10;4.70;;;21.90;75.00;;;;;;10436020;28;20224;-82
2023/05/04 09:47:34;;;;;;;6.27;5.80;;;22.30;73.60;;;;;;10474534;28;20190;-81
2023/05/04 09:52:37;;;;;;;6.23;5.77;;;22.50;72.80;;;;;;10471706;28;20260;-82
2023/05/04 09:57:41;;;;;;;5.93;5.53;;;22.80;72.90;;;;;;10471061;28;20695;-82
2023/05/04 10:02:43;;;;;;;5.63;5.13;;;23.20;71.90;;;;;;10470765;28;20565;-80
2023/05/04 10:07:45;;;;;;;6.57;6.13;;;23.60;70.90;;;;;;10469838;28;20194;-81
2023/05/04 10:12:49;;;;;;;5.30;5.00;;;23.90;70.00;;;;;;10430852;28;20192;-80
2023/05/04 10:18:03;;;;;;;5.63;5.20;;;23.80;68.50;;;;;;10464398;28;20213;-80
2023/05/04 10:23:29;;;;;;;5.87;5.27;;;23.40;65.40;;;;;;10472259;28;20200;-82
2023/05/04 10:28:43;;;;;;;4.30;3.90;;;22.90;62.30;;;;;;10462057;28;20232;-82
2023/05/04 10:33:45;;;;;;;5.40;4.70;;;22.40;67.30;;;;;;10470706;28;20301;-82
2023/05/04 10:38:48;;;;;;;5.60;5.10;;;22.00;67.50;;;;;;10471533;28;20253;-81
2023/05/04 10:44:03;;;;;;;6.53;6.13;;;21.70;65.60;;;;;;10472203;28;20763;-81
2023/05/04 10:49:16;;;;;;;6.03;5.53;;;21.50;68.80;;;;;;10473156;28;20740;-81
2023/05/04 10:54:19;;;;;;;5.77;5.37;;;21.30;65.50;;;;;;10469165;28;20240;-80
2023/05/04 10:59:22;;;;;;;5.73;5.23;;;21.20;66.50;;;;;;10445284;28;20222;-80
2023/05/04 11:04:25;;;;;;;5.40;4.90;;;21.20;65.00;;;;;;10461193;28;20248;-81
2023/05/04 11:09:27;;;;;;;5.53;5.03;;;21.10;63.70;;;;;;10462200;28;20659;-80
2023/05/04 11:14:36;;;;;;;4.67;4.37;;;21.10;68.30;;;;;;10465054;28;20212;-81
2023/05/04 11:19:49;;;;;;;6.13;5.53;;;21.00;69.30;;;;;;10461018;28;20621;-80
2023/05/04 11:24:51;;;;;;;5.70;5.20;;;21.00;65.30;;;;;;10462617;28;20248;-80
2023/05/04 11:29:56;;;;;;;5.60;4.70;;;21.00;64.20;;;;;;10461751;28;20662;-80
2023/05/04 11:34:59;;;;;;;5.10;4.70;;;20.90;64.70;;;;;;10462805;28;20221;-80
2023/05/04 11:40:02;;;;;;;5.83;5.23;;;20.90;64.90;;;;;;10444909;28;20587;-81
2023/05/04 11:45:10;;;;;;;5.50;5.10;;;20.90;65.10;;;;;;10458566;28;20186;-81
2023/05/04 11:50:13;;;;;;;4.70;4.33;;;20.80;66.40;;;;;;10464011;28;20237;-81
2023/05/04 11:55:26;;;;;;;5.37;4.97;;;20.70;66.10;;;;;;10469441;28;20837;-80
2023/05/04 12:00:37;;;;;;;6.80;5.63;;;20.60;66.90;;;;;;10464924;28;20489;-80
2023/05/04 12:05:46;;;;;;;6.73;6.10;;;20.70;64.50;;;;;;10458307;28;20201;-80
2023/05/04 12:10:48;;;;;;;9.30;8.50;;;20.70;62.90;;;;;;10460619;28;20644;-80
2023/05/04 12:15:52;;;;;;;5.97;5.37;;;20.60;65.90;;;;;;10470268;28;20217;-80
2023/05/04 12:20:54;;;;;;;5.60;5.10;;;20.60;66.50;;;;;;10466655;28;20229;-81
2023/05/04 12:25:58;;;;;;;6.27;5.77;;;20.60;65.90;;;;;;10466120;28;20742;-79
2023/05/04 12:31:03;;;;;;;5.80;5.30;;;20.70;64.30;;;;;;10468331;28;20304;-82
2023/05/04 12:36:06;;;;;;;6.03;5.63;;;20.60;69.50;;;;;;10466607;28;20220;-81
2023/05/04 12:41:09;;;;;;;5.70;5.30;;;20.60;65.40;;;;;;10466388;28;20275;-81
2023/05/04 12:46:13;;;;;;;5.87;5.37;;;20.50;70.10;;;;;;10465401;28;20240;-80
2023/05/04 12:51:15;;;;;;;10.57;9.67;;;20.60;65.10;;;;;;10467923;28;20238;-81
2023/05/04 12:56:17;;;;;;;6.20;5.70;;;20.60;67.20;;;;;;10466014;28;20228;-82
2023/05/04 13:01:20;;;;;;;7.83;6.00;;;20.70;67.30;;;;;;10467476;28;20229;-82
2023/05/04 13:06:23;;;;;;;7.03;6.43;;;20.60;69.90;;;;;;10466601;28;20198;-82
2023/05/04 13:11:25;;;;;;;6.43;5.93;;;20.60;70.90;;;;;;10463836;28;20308;-80
2023/05/04 13:16:29;;;;;;;5.90;5.50;;;20.70;64.00;;;;;;10461078;28;20274;-80
2023/05/04 13:21:31;;;;;;;6.33;5.87;;;20.60;68.20;;;;;;10461942;28;20579;-80
2023/05/04 13:26:33;;;;;;;7.37;6.83;;;20.60;70.70;;;;;;10462564;28;20200;-80
2023/05/04 13:31:36;;;;;;;6.47;5.97;;;20.60;69.30;;;;;;10462055;28;20905;-80
2023/05/04 13:36:38;;;;;;;5.57;5.07;;;20.70;67.70;;;;;;10465512;28;20264;-80
2023/05/04 13:41:41;;;;;;;6.43;5.83;;;20.70;72.70;;;;;;10455099;28;20222;-80
2023/05/04 13:46:44;;;;;;;6.00;5.50;;;20.80;66.70;;;;;;10448705;28;20598;-80
2023/05/04 13:51:46;;;;;;;5.20;4.80;;;20.80;69.80;;;;;;10469333;28;20239;-80
2023/05/04 13:56:51;;;;;;;7.20;6.70;;;20.80;74.30;;;;;;10464071;28;20226;-80
2023/05/04 14:01:54;;;;;;;7.13;6.53;;;20.70;69.70;;;;;;10460967;28;20252;-80
2023/05/04 14:06:56;;;;;;;7.80;7.20;;;20.90;71.10;;;;;;10462164;28;20220;-79
2023/05/04 14:11:59;;;;;;;6.20;5.60;;;20.90;69.60;;;;;;10458558;28;20236;-80
2023/05/04 14:17:02;;;;;;;4.90;4.50;;;20.90;71.70;;;;;;10463011;28;20225;-79
2023/05/04 14:22:04;;;;;;;6.97;6.23;;;21.00;75.50;;;;;;10462987;28;20220;-78
2023/05/04 14:27:07;;;;;;;6.97;6.43;;;20.90;71.20;;;;;;10462172;28;20670;-79
2023/05/04 14:32:10;;;;;;;6.80;6.27;;;21.20;69.60;;;;;;10462129;28;20620;-81
2023/05/04 14:37:22;;;;;;;7.20;6.50;;;21.30;70.00;;;;;;10456046;28;20222;-81
2023/05/04 14:42:27;;;;;;;5.40;5.00;;;21.30;69.90;;;;;;10456146;28;20225;-80
2023/05/04 14:47:33;;;;;;;6.33;5.83;;;21.30;74.70;;;;;;10461450;28;20198;-81
2023/05/04 14:52:35;;;;;;;6.27;5.67;;;21.20;72.40;;;;;;10459269;28;20236;-80
2023/05/04 14:57:37;;;;;;;6.67;6.17;;;21.00;75.00;;;;;;10458836;28;20296;-80
2023/05/04 15:02:41;;;;;;;7.70;7.10;;;20.90;75.20;;;;;;10461122;28;20214;-80
2023/05/04 15:07:43;;;;;;;7.67;6.13;;;21.00;70.70;;;;;;10461881;28;20186;-80
2023/05/04 15:12:45;;;;;;;6.00;5.40;;;20.90;72.80;;;;;;10459954;28;20193;-81
2023/05/04 15:17:48;;;;;;;6.77;6.17;;;21.30;74.20;;;;;;10457869;28;20743;-80
2023/05/04 15:22:51;;;;;;;7.23;6.53;;;22.50;67.70;;;;;;10459187;28;20565;-80
2023/05/04 15:27:53;;;;;;;5.70;5.30;;;22.70;66.60;;;;;;10458644;28;20269;-80
2023/05/04 15:32:57;;;;;;;6.17;5.70;;;22.40;71.70;;;;;;10462212;28;20194;-80
2023/05/04 15:37:59;;;;;;;7.53;5.83;;;22.20;67.80;;;;;;10460388;28;20673;-80
2023/05/04 15:43:02;;;;;;;5.13;4.63;;;21.90;68.70;;;;;;10460439;28;20193;-80
2023/05/04 15:48:06;;;;;;;5.23;4.83;;;21.60;69.20;;;;;;10458088;28;20201;-80
2023/05/04 15:53:08;;;;;;;5.37;4.97;;;21.60;67.70;;;;;;10457977;28;20662;-80
2023/05/04 15:58:10;;;;;;;5.80;5.40;;;21.60;67.30;;;;;;10460014;28;20517;-79
2023/05/04 16:03:14;;;;;;;5.20;4.70;;;21.60;68.50;;;;;;10460287;28;20198;-81
2023/05/04 16:08:16;;;;;;;5.60;5.17;;;21.50;69.60;;;;;;10457965;28;20283;-80
2023/05/04 16:13:18;;;;;;;5.27;4.77;;;21.60;66.80;;;;;;10458341;28;20201;-79
2023/05/04 16:18:22;;;;;;;5.90;5.40;;;21.70;67.00;;;;;;10458632;28;20253;-79
2023/05/04 16:23:24;;;;;;;7.53;6.27;;;21.70;66.80;;;;;;10457501;28;20272;-79
2023/05/04 16:28:26;;;;;;;7.20;6.60;;;22.00;65.50;;;;;;10449640;28;20646;-79
2023/05/04 16:33:30;;;;;;;5.60;5.20;;;22.00;64.80;;;;;;10457705;28;20209;-79
2023/05/04 16:38:32;;;;;;;5.00;4.60;;;22.00;67.60;;;;;;10457325;28;20241;-79
2023/05/04 16:43:34;;;;;;;6.07;5.57;;;21.80;67.40;;;;;;10457319;28;20194;-81
2023/05/04 16:48:38;;;;;;;5.87;5.33;;;21.70;66.10;;;;;;10456722;28;20833;-81
2023/05/04 16:53:43;;;;;;;7.77;6.97;;;21.70;67.10;;;;;;10446743;28;20194;-80
2023/05/04 16:58:45;;;;;;;5.87;5.37;;;21.70;66.90;;;;;;10443185;28;20226;-80
2023/05/04 17:03:57;;;;;;;6.70;6.10;;;21.60;70.00;;;;;;10438826;28;20681;-80
2023/05/04 17:09:00;;;;;;;6.10;5.60;;;21.60;67.10;;;;;;10460272;28;20214;-80
2023/05/04 17:14:07;;;;;;;5.97;5.50;;;21.60;67.00;;;;;;10463147;28;20558;-81
2023/05/04 17:19:11;;;;;;;6.73;5.87;;;21.70;67.20;;;;;;10458803;28;20225;-80
2023/05/04 17:24:14;;;;;;;6.87;6.30;;;21.80;67.10;;;;;;10465604;28;20194;-80
2023/05/04 17:29:20;;;;;;;5.97;5.37;;;21.80;66.20;;;;;;10449780;28;20632;-81
2023/05/04 17:34:26;;;;;;;6.40;5.90;;;21.80;67.50;;;;;;10425015;28;20202;-81
2023/05/04 17:39:30;;;;;;;7.03;6.33;;;21.70;67.90;;;;;;10443182;28;20514;-80
2023/05/04 17:44:32;;;;;;;7.07;5.40;;;21.70;67.10;;;;;;10423739;28;20256;-80
2023/05/04 17:49:35;;;;;;;6.80;6.17;;;21.70;67.50;;;;;;10423072;28;20219;-80
2023/05/04 17:54:38;;;;;;;6.67;6.07;;;21.50;68.20;;;;;;10466557;28;20202;-80
2023/05/04 17:59:40;;;;;;;5.50;5.10;;;21.40;68.30;;;;;;10465891;28;20304;-80
2023/05/04 18:04:43;;;;;;;5.37;4.97;;;21.30;70.60;;;;;;10467211;28;20194;-80
2023/05/04 18:09:46;;;;;;;6.67;6.17;;;21.20;69.70;;;;;;10467570;28;20233;-80
2023/05/04 18:14:48;;;;;;;6.03;5.53;;;21.10;69.90;;;;;;10475954;28;20217;-80
2023/05/04 18:19:52;;;;;;;6.80;6.10;;;21.00;70.10;;;;;;10470204;28;20220;-80
2023/05/04 18:24:54;;;;;;;7.10;6.50;;;20.90;70.50;;;;;;10484947;28;20190;-80
2023/05/04 18:30:06;;;;;;;6.63;6.03;;;20.80;71.10;;;;;;10478751;28;20247;-80
2023/05/04 18:35:10;;;;;;;8.73;5.70;;;20.60;73.10;;;;;;10471054;28;20217;-80
2023/05/04 18:40:13;;;;;;;5.43;5.03;;;20.40;76.20;;;;;;10470499;28;20214;-80
2023/05/04 18:45:15;;;;;;;5.80;5.37;;;20.20;75.90;;;;;;10464452;28;20197;-80
2023/05/04 18:50:19;;;;;;;5.40;5.00;;;20.00;76.50;;;;;;10466604;28;20583;-81
2023/05/04 18:55:22;;;;;;;5.03;4.73;;;19.90;76.80;;;;;;10453497;28;20202;-81
2023/05/04 19:00:24;;;;;;;5.20;4.80;;;19.80;77.50;;;;;;10452665;28;20216;-79
2023/05/04 19:05:27;;;;;;;5.33;4.87;;;19.70;78.50;;;;;;10446490;28;20203;-79
2023/05/04 19:10:30;;;;;;;7.20;5.40;;;19.60;79.10;;;;;;10459000;28;20217;-79
2023/05/04 19:15:34;;;;;;;5.60;5.20;;;19.50;79.90;;;;;;10460579;28;20639;-80
2023/05/04 19:20:38;;;;;;;5.03;4.63;;;19.30;80.00;;;;;;10460416;28;20697;-79
2023/05/04 19:25:41;;;;;;;5.60;5.10;;;19.20;80.00;;;;;;10457914;28;20190;-79
2023/05/04 19:30:43;;;;;;;5.43;5.03;;;19.20;80.60;;;;;;10457463;28;20360;-80
2023/05/04 19:35:47;;;;;;;5.77;5.37;;;19.00;80.70;;;;;;10443236;28;20220;-79
2023/05/04 19:40:49;;;;;;;5.97;5.10;;;19.00;80.60;;;;;;10443660;28;20625;-78
2023/05/04 19:45:51;;;;;;;5.33;4.87;;;19.00;80.70;;;;;;10461094;28;20654;-81
2023/05/04 19:50:55;;;;;;;6.23;5.73;;;18.90;80.30;;;;;;10461216;28;20609;-79
2023/05/04 19:55:57;;;;;;;5.90;5.40;;;18.90;80.30;;;;;;10459551;28;20259;-79
2023/05/04 20:00:59;;;;;;;7.50;5.10;;;18.90;80.10;;;;;;10463371;28;20300;-80
2023/05/04 20:06:03;;;;;;;5.83;5.37;;;18.90;81.50;;;;;;10446468;28;20205;-79
2023/05/04 20:11:05;;;;;;;5.67;5.10;;;18.80;81.20;;;;;;10459040;28;20249;-80
2023/05/04 20:16:07;;;;;;;5.70;5.30;;;18.70;81.80;;;;;;10462258;28;20228;-79
2023/05/04 20:21:14;;;;;;;5.37;4.97;;;18.70;82.50;;;;;;10463813;28;20233;-80
2023/05/04 20:26:16;;;;;;;5.77;5.37;;;18.50;82.10;;;;;;10460394;28;20252;-80
2023/05/04 20:31:18;;;;;;;5.27;4.80;;;18.50;82.70;;;;;;10459582;28;20253;-78
2023/05/04 20:36:22;;;;;;;6.00;5.50;;;18.40;82.50;;;;;;10441433;28;20221;-81
2023/05/04 20:41:24;;;;;;;5.80;5.40;;;18.40;85.40;;;;;;10445257;28;20685;-79
2023/05/04 20:46:32;;;;;;;5.57;5.17;;;18.30;85.90;;;;;;10460532;28;20603;-81
2023/05/04 20:51:36;;;;;;;6.00;5.50;;;18.20;87.00;;;;;;10460819;28;20255;-80
2023/05/04 20:56:38;;;;;;;6.13;5.47;;;18.10;86.70;;;;;;10448859;28;20213;-79
2023/05/04 21:01:40;;;;;;;6.10;5.50;;;18.00;88.60;;;;;;10469197;28;20218;-78
2023/05/04 21:06:43;;;;;;;5.93;5.43;;;17.90;87.20;;;;;;10467917;28;20190;-80
2023/05/04 21:11:45;;;;;;;7.00;5.77;;;17.90;86.90;;;;;;10466767;28;20221;-80
2023/05/04 21:16:47;;;;;;;6.20;5.63;;;17.80;87.10;;;;;;10466526;28;20712;-80
2023/05/04 21:21:51;;;;;;;5.50;5.00;;;17.70;87.90;;;;;;10466961;28;20317;-81
2023/05/04 21:26:53;;;;;;;6.23;5.70;;;17.70;88.60;;;;;;10465125;28;20225;-79
2023/05/04 21:31:56;;;;;;;4.73;4.40;;;17.50;89.30;;;;;;10469007;28;20735;-81
2023/05/04 21:36:59;;;;;;;7.83;5.50;;;17.40;89.90;;;;;;10471484;28;20270;-79
2023/05/04 21:42:02;;;;;;;7.03;6.33;;;17.30;90.20;;;;;;10471639;28;20225;-81
2023/05/04 21:47:04;;;;;;;5.30;4.80;;;17.20;90.40;;;;;;10472399;28;20713;-79
2023/05/04 21:52:07;;;;;;;6.10;5.60;;;17.20;90.80;;;;;;10471810;28;20214;-79
2023/05/04 21:57:09;;;;;;;5.70;5.13;;;17.10;90.80;;;;;;10469857;28;20209;-81
2023/05/04 22:02:11;;;;;;;6.30;5.50;;;17.10;91.00;;;;;;10469367;28;20205;-80
2023/05/04 22:07:15;;;;;;;5.93;5.43;;;17.10;91.00;;;;;;10470193;28;20189;-81
2023/05/04 22:12:18;;;;;;;5.50;5.10;;;17.00;91.40;;;;;;10471697;28;20225;-81
2023/05/04 22:17:20;;;;;;;6.47;5.97;;;16.90;91.40;;;;;;10470024;28;20662;-81
2023/05/04 22:22:24;;;;;;;5.90;5.37;;;16.80;91.50;;;;;;10472144;28;20221;-81
2023/05/04 22:27:26;;;;;;;5.83;5.43;;;16.80;91.70;;;;;;10472120;28;20194;-81
2023/05/04 22:32:28;;;;;;;6.20;5.77;;;16.70;91.60;;;;;;10474740;28;20232;-81
2023/05/04 22:37:31;;;;;;;6.00;5.60;;;16.60;92.00;;;;;;10476406;28;20253;-81
2023/05/04 22:42:33;;;;;;;7.40;6.30;;;16.50;92.10;;;;;;10476239;28;20210;-81
2023/05/04 22:47:35;;;;;;;7.23;6.53;;;16.50;92.10;;;;;;10477743;28;20666;-80
2023/05/04 22:52:39;;;;;;;6.13;5.63;;;16.40;92.20;;;;;;10481360;28;20229;-79
2023/05/04 22:57:41;;;;;;;7.10;6.50;;;16.40;92.20;;;;;;10489572;28;20245;-81
2023/05/04 23:02:43;;;;;;;6.03;5.47;;;16.30;92.30;;;;;;10483002;28;20210;-81
2023/05/04 23:07:47;;;;;;;6.50;5.90;;;16.30;92.40;;;;;;10473738;28;20201;-81
2023/05/04 23:12:49;;;;;;;7.00;6.40;;;16.20;92.40;;;;;;10476876;28;20221;-81
2023/05/04 23:17:51;;;;;;;8.90;6.20;;;16.20;92.60;;;;;;10468663;28;20584;-80
2023/05/04 23:22:54;;;;;;;6.10;5.60;;;16.10;92.60;;;;;;10471615;28;20198;-80
2023/05/04 23:27:56;;;;;;;7.40;6.70;;;16.10;92.80;;;;;;10475349;28;20244;-81
2023/05/04 23:32:58;;;;;;;6.43;6.03;;;16.10;92.90;;;;;;10476264;28;20259;-81
2023/05/04 23:38:03;;;;;;;6.60;6.00;;;16.20;92.90;;;;;;10461508;28;20217;-80
2023/05/04 23:43:05;;;;;;;6.43;5.93;;;16.20;93.00;;;;;;10457279;28;20685;-80
2023/05/04 23:48:07;;;;;;;6.97;6.27;;;16.20;93.20;;;;;;10457845;28;20272;-80
2023/05/04 23:53:11;;;;;;;7.33;6.73;;;16.20;93.30;;;;;;10457533;28;20264;-78
2023/05/04 23:58:13;;;;;;;7.13;6.63;;;16.30;93.30;;;;;;10439425;28;20229;-79
